sensor_id;sensor_type;location;lat;lon;timestamp;temperature;humidity
10296;DHT22;5193;51.032;6.356;2023-12-07T00:01:34;0.20;99.90
10296;DHT22;5193;51.032;6.356;2023-12-07T00:04:01;0.30;99.90
10296;DHT22;5193;51.032;6.356;2023-12-07T00:06:31;0.20;99.90
10296;DHT22;5193;51.032;6.356;2023-12-07T00:09:02;0.20;99.90
10296;DHT22;5193;51.032;6.356;2023-12-07T00:11:28;0.20;99.90
10296;DHT22;5193;51.032;6.356;2023-12-07T00:13:54;0.10;99.90
10296;DHT22;5193;51.032;6.356;2023-12-07T00:16:19;0.20;99.90
10296;DHT22;5193;51.032;6.356;2023-12-07T00:18:45;0.10;99.90
10296;DHT22;5193;51.032;6.356;2023-12-07T00:21:11;0.20;99.90
10296;DHT22;5193;51.032;6.356;2023-12-07T00:23:48;0.20;99.90
10296;DHT22;5193;51.032;6.356;2023-12-07T00:26:14;0.20;99.90
10296;DHT22;5193;51.032;6.356;2023-12-07T00:28:41;0.20;99.90
10296;DHT22;5193;51.032;6.356;2023-12-07T00:31:15;0.20;99.90
10296;DHT22;5193;51.032;6.356;2023-12-07T00:33:40;0.20;99.90
10296;DHT22;5193;51.032;6.356;2023-12-07T00:36:09;0.10;99.90
10296;DHT22;5193;51.032;6.356;2023-12-07T00:38:35;0.10;99.90
10296;DHT22;5193;51.032;6.356;2023-12-07T00:41:01;0.10;99.90
10296;DHT22;5193;51.032;6.356;2023-12-07T00:43:27;0.10;99.90
10296;DHT22;5193;51.032;6.356;2023-12-07T00:45:52;0.00;99.90
10296;DHT22;5193;51.032;6.356;2023-12-07T00:48:21;0.00;99.90
10296;DHT22;5193;51.032;6.356;2023-12-07T00:50:47;-0.10;99.90
10296;DHT22;5193;51.032;6.356;2023-12-07T00:53:13;-0.10;99.90
10296;DHT22;5193;51.032;6.356;2023-12-07T00:55:38;-0.10;99.90
10296;DHT22;5193;51.032;6.356;2023-12-07T00:58:05;-0.20;99.90
10296;DHT22;5193;51.032;6.356;2023-12-07T01:00:34;-0.30;99.90
10296;DHT22;5193;51.032;6.356;2023-12-07T01:03:07;-0.40;99.90
10296;DHT22;5193;51.032;6.356;2023-12-07T01:08:54;-0.50;99.90
10296;DHT22;5193;51.032;6.356;2023-12-07T01:11:22;-0.50;99.90
10296;DHT22;5193;51.032;6.356;2023-12-07T01:13:48;-0.60;99.90
10296;DHT22;5193;51.032;6.356;2023-12-07T01:16:14;-0.70;99.90
10296;DHT22;5193;51.032;6.356;2023-12-07T01:18:43;-0.70;99.90
10296;DHT22;5193;51.032;6.356;2023-12-07T01:21:13;-0.70;99.90
10296;DHT22;5193;51.032;6.356;2023-12-07T01:23:38;-0.70;99.90
10296;DHT22;5193;51.032;6.356;2023-12-07T01:26:06;-0.80;99.90
10296;DHT22;5193;51.032;6.356;2023-12-07T01:28:32;-0.80;99.90
10296;DHT22;5193;51.032;6.356;2023-12-07T01:30:58;-0.80;99.90
10296;DHT22;5193;51.032;6.356;2023-12-07T01:33:25;-0.80;99.90
10296;DHT22;5193;51.032;6.356;2023-12-07T01:35:53;-0.80;99.90
10296;DHT22;5193;51.032;6.356;2023-12-07T01:38:22;-0.90;99.90
10296;DHT22;5193;51.032;6.356;2023-12-07T01:40:51;-0.90;99.90
10296;DHT22;5193;51.032;6.356;2023-12-07T01:43:17;-0.90;99.90
10296;DHT22;5193;51.032;6.356;2023-12-07T01:45:42;-0.90;99.90
10296;DHT22;5193;51.032;6.356;2023-12-07T01:48:08;-0.90;99.90
10296;DHT22;5193;51.032;6.356;2023-12-07T01:50:34;-0.90;99.90
10296;DHT22;5193;51.032;6.356;2023-12-07T01:53:01;-0.90;99.90
10296;DHT22;5193;51.032;6.356;2023-12-07T01:55:32;-0.90;99.90
10296;DHT22;5193;51.032;6.356;2023-12-07T01:58:01;-0.90;99.90
10296;DHT22;5193;51.032;6.356;2023-12-07T02:00:27;-0.90;99.90
10296;DHT22;5193;51.032;6.356;2023-12-07T02:02:53;-0.90;99.90
10296;DHT22;5193;51.032;6.356;2023-12-07T02:05:22;-0.90;99.90
10296;DHT22;5193;51.032;6.356;2023-12-07T02:07:51;-0.90;99.90
10296;DHT22;5193;51.032;6.356;2023-12-07T02:10:20;-0.90;99.90
10296;DHT22;5193;51.032;6.356;2023-12-07T02:12:48;-0.80;99.90
10296;DHT22;5193;51.032;6.356;2023-12-07T02:15:16;-0.80;99.90
10296;DHT22;5193;51.032;6.356;2023-12-07T02:18:14;-0.80;99.90
10296;DHT22;5193;51.032;6.356;2023-12-07T02:21:02;-0.80;99.90
10296;DHT22;5193;51.032;6.356;2023-12-07T02:23:30;-0.70;99.90
10296;DHT22;5193;51.032;6.356;2023-12-07T02:26:03;-0.70;99.90
10296;DHT22;5193;51.032;6.356;2023-12-07T02:28:50;-0.70;99.90
10296;DHT22;5193;51.032;6.356;2023-12-07T02:31:15;-0.70;99.90
10296;DHT22;5193;51.032;6.356;2023-12-07T02:33:41;-0.70;99.90
10296;DHT22;5193;51.032;6.356;2023-12-07T02:36:27;-0.70;99.90
10296;DHT22;5193;51.032;6.356;2023-12-07T02:38:58;-0.80;99.90
10296;DHT22;5193;51.032;6.356;2023-12-07T02:41:25;-0.70;99.90
10296;DHT22;5193;51.032;6.356;2023-12-07T02:43:52;-0.80;99.90
10296;DHT22;5193;51.032;6.356;2023-12-07T02:46:21;-0.80;99.90
10296;DHT22;5193;51.032;6.356;2023-12-07T02:48:57;-0.80;99.90
10296;DHT22;5193;51.032;6.356;2023-12-07T02:51:23;-0.80;99.90
10296;DHT22;5193;51.032;6.356;2023-12-07T02:53:50;-0.90;99.90
10296;DHT22;5193;51.032;6.356;2023-12-07T02:56:16;-0.90;99.90
10296;DHT22;5193;51.032;6.356;2023-12-07T02:58:42;-0.90;99.90
10296;DHT22;5193;51.032;6.356;2023-12-07T03:01:07;-0.90;99.90
10296;DHT22;5193;51.032;6.356;2023-12-07T03:03:34;-0.90;99.90
10296;DHT22;5193;51.032;6.356;2023-12-07T03:06:03;-0.90;99.90
10296;DHT22;5193;51.032;6.356;2023-12-07T03:08:30;-0.90;99.90
10296;DHT22;5193;51.032;6.356;2023-12-07T03:11:01;-1.00;99.90
10296;DHT22;5193;51.032;6.356;2023-12-07T03:13:26;-1.00;99.90
10296;DHT22;5193;51.032;6.356;2023-12-07T03:15:52;-1.00;99.90
10296;DHT22;5193;51.032;6.356;2023-12-07T03:18:17;-1.00;99.90
10296;DHT22;5193;51.032;6.356;2023-12-07T03:20:43;-1.00;99.90
10296;DHT22;5193;51.032;6.356;2023-12-07T03:23:09;-1.00;99.90
10296;DHT22;5193;51.032;6.356;2023-12-07T03:25:36;-1.00;99.90
10296;DHT22;5193;51.032;6.356;2023-12-07T03:28:01;-1.00;99.90
10296;DHT22;5193;51.032;6.356;2023-12-07T03:30:27;-1.00;99.90
10296;DHT22;5193;51.032;6.356;2023-12-07T03:32:53;-1.10;99.90
10296;DHT22;5193;51.032;6.356;2023-12-07T03:35:27;-1.10;99.90
10296;DHT22;5193;51.032;6.356;2023-12-07T03:37:53;-1.10;99.90
10296;DHT22;5193;51.032;6.356;2023-12-07T03:40:19;-1.10;99.90
10296;DHT22;5193;51.032;6.356;2023-12-07T03:42:45;-1.10;99.90
10296;DHT22;5193;51.032;6.356;2023-12-07T03:45:11;-1.10;99.90
10296;DHT22;5193;51.032;6.356;2023-12-07T03:47:36;-1.10;99.90
10296;DHT22;5193;51.032;6.356;2023-12-07T03:50:02;-1.10;99.90
10296;DHT22;5193;51.032;6.356;2023-12-07T03:52:28;-1.10;99.90
10296;DHT22;5193;51.032;6.356;2023-12-07T03:54:54;-1.10;99.90
10296;DHT22;5193;51.032;6.356;2023-12-07T03:57:23;-1.10;99.90
10296;DHT22;5193;51.032;6.356;2023-12-07T03:59:49;-1.10;99.90
10296;DHT22;5193;51.032;6.356;2023-12-07T04:02:15;-1.10;99.90
10296;DHT22;5193;51.032;6.356;2023-12-07T04:04:41;-1.10;99.90
10296;DHT22;5193;51.032;6.356;2023-12-07T04:07:06;-1.10;99.90
10296;DHT22;5193;51.032;6.356;2023-12-07T04:09:33;-1.00;99.90
10296;DHT22;5193;51.032;6.356;2023-12-07T04:11:59;-1.00;99.90
10296;DHT22;5193;51.032;6.356;2023-12-07T04:14:25;-0.90;99.90
10296;DHT22;5193;51.032;6.356;2023-12-07T04:16:58;-0.90;99.90
10296;DHT22;5193;51.032;6.356;2023-12-07T04:19:25;-0.90;99.90
10296;DHT22;5193;51.032;6.356;2023-12-07T04:21:53;-1.00;99.90
10296;DHT22;5193;51.032;6.356;2023-12-07T04:24:19;-1.10;99.90
10296;DHT22;5193;51.032;6.356;2023-12-07T04:26:51;-1.10;99.90
10296;DHT22;5193;51.032;6.356;2023-12-07T04:29:18;-1.10;99.90
10296;DHT22;5193;51.032;6.356;2023-12-07T04:31:44;-1.20;99.90
10296;DHT22;5193;51.032;6.356;2023-12-07T04:34:13;-1.20;99.90
10296;DHT22;5193;51.032;6.356;2023-12-07T04:40:01;-1.30;99.90
10296;DHT22;5193;51.032;6.356;2023-12-07T04:42:29;-1.40;99.90
10296;DHT22;5193;51.032;6.356;2023-12-07T04:44:55;-1.40;99.90
10296;DHT22;5193;51.032;6.356;2023-12-07T04:47:22;-1.50;99.90
10296;DHT22;5193;51.032;6.356;2023-12-07T04:49:50;-1.50;99.90
10296;DHT22;5193;51.032;6.356;2023-12-07T04:52:28;-1.60;99.90
10296;DHT22;5193;51.032;6.356;2023-12-07T04:54:53;-1.60;99.90
10296;DHT22;5193;51.032;6.356;2023-12-07T04:57:22;-1.60;99.90
10296;DHT22;5193;51.032;6.356;2023-12-07T04:59:49;-1.70;99.90
10296;DHT22;5193;51.032;6.356;2023-12-07T05:02:15;-1.70;99.90
10296;DHT22;5193;51.032;6.356;2023-12-07T05:04:44;-1.70;99.90
10296;DHT22;5193;51.032;6.356;2023-12-07T05:07:11;-1.60;99.90
10296;DHT22;5193;51.032;6.356;2023-12-07T05:09:37;-1.60;99.90
10296;DHT22;5193;51.032;6.356;2023-12-07T05:12:05;-1.60;99.90
10296;DHT22;5193;51.032;6.356;2023-12-07T05:14:33;-1.60;99.90
10296;DHT22;5193;51.032;6.356;2023-12-07T05:17:00;-1.60;99.90
10296;DHT22;5193;51.032;6.356;2023-12-07T05:19:32;-1.60;99.90
10296;DHT22;5193;51.032;6.356;2023-12-07T05:21:58;-1.50;99.90
10296;DHT22;5193;51.032;6.356;2023-12-07T05:27:48;-1.50;99.90
10296;DHT22;5193;51.032;6.356;2023-12-07T05:30:14;-1.50;99.90
10296;DHT22;5193;51.032;6.356;2023-12-07T05:32:45;-1.50;99.90
10296;DHT22;5193;51.032;6.356;2023-12-07T05:35:13;-1.50;99.90
10296;DHT22;5193;51.032;6.356;2023-12-07T05:37:38;-1.50;99.90
10296;DHT22;5193;51.032;6.356;2023-12-07T05:40:05;-1.50;99.90
10296;DHT22;5193;51.032;6.356;2023-12-07T05:42:33;-1.60;99.90
10296;DHT22;5193;51.032;6.356;2023-12-07T05:44:58;-1.60;99.90
10296;DHT22;5193;51.032;6.356;2023-12-07T05:47:25;-1.60;99.90
10296;DHT22;5193;51.032;6.356;2023-12-07T05:49:52;-1.60;99.90
10296;DHT22;5193;51.032;6.356;2023-12-07T05:52:18;-1.60;99.90
10296;DHT22;5193;51.032;6.356;2023-12-07T05:54:44;-1.60;99.90
10296;DHT22;5193;51.032;6.356;2023-12-07T05:57:15;-1.60;99.90
10296;DHT22;5193;51.032;6.356;2023-12-07T05:59:49;-1.60;99.90
10296;DHT22;5193;51.032;6.356;2023-12-07T06:02:16;-1.70;99.90
10296;DHT22;5193;51.032;6.356;2023-12-07T06:04:45;-1.60;99.90
10296;DHT22;5193;51.032;6.356;2023-12-07T06:07:10;-1.60;99.90
10296;DHT22;5193;51.032;6.356;2023-12-07T06:09:37;-1.60;99.90
10296;DHT22;5193;51.032;6.356;2023-12-07T06:12:03;-1.70;99.90
10296;DHT22;5193;51.032;6.356;2023-12-07T06:14:29;-1.70;99.90
10296;DHT22;5193;51.032;6.356;2023-12-07T06:16:56;-1.70;99.90
10296;DHT22;5193;51.032;6.356;2023-12-07T06:19:24;-1.80;99.90
10296;DHT22;5193;51.032;6.356;2023-12-07T06:21:51;-1.80;99.90
10296;DHT22;5193;51.032;6.356;2023-12-07T06:24:20;-1.80;99.90
10296;DHT22;5193;51.032;6.356;2023-12-07T06:26:50;-1.80;99.90
10296;DHT22;5193;51.032;6.356;2023-12-07T06:29:18;-1.90;99.90
10296;DHT22;5193;51.032;6.356;2023-12-07T06:31:44;-1.90;99.90
10296;DHT22;5193;51.032;6.356;2023-12-07T06:34:10;-1.80;99.90
10296;DHT22;5193;51.032;6.356;2023-12-07T06:36:36;-1.80;99.90
10296;DHT22;5193;51.032;6.356;2023-12-07T06:39:02;-1.90;99.90
10296;DHT22;5193;51.032;6.356;2023-12-07T06:41:31;-1.90;99.90
10296;DHT22;5193;51.032;6.356;2023-12-07T06:43:57;-1.80;99.90
10296;DHT22;5193;51.032;6.356;2023-12-07T06:46:25;-1.80;99.90
10296;DHT22;5193;51.032;6.356;2023-12-07T06:48:56;-1.80;99.90
10296;DHT22;5193;51.032;6.356;2023-12-07T06:51:23;-1.80;99.90
10296;DHT22;5193;51.032;6.356;2023-12-07T06:53:49;-1.80;99.90
10296;DHT22;5193;51.032;6.356;2023-12-07T06:56:17;-1.90;99.90
10296;DHT22;5193;51.032;6.356;2023-12-07T06:58:48;-1.90;99.90
10296;DHT22;5193;51.032;6.356;2023-12-07T07:01:14;-1.80;99.90
10296;DHT22;5193;51.032;6.356;2023-12-07T07:03:39;-1.80;99.90
10296;DHT22;5193;51.032;6.356;2023-12-07T07:06:06;-1.80;99.90
10296;DHT22;5193;51.032;6.356;2023-12-07T07:08:32;-1.80;99.90
10296;DHT22;5193;51.032;6.356;2023-12-07T07:14:23;-1.70;99.90
10296;DHT22;5193;51.032;6.356;2023-12-07T07:16:50;-1.70;99.90
10296;DHT22;5193;51.032;6.356;2023-12-07T07:19:16;-1.70;99.90
10296;DHT22;5193;51.032;6.356;2023-12-07T07:21:42;-1.70;99.90
10296;DHT22;5193;51.032;6.356;2023-12-07T07:24:08;-1.70;99.90
10296;DHT22;5193;51.032;6.356;2023-12-07T07:26:34;-1.70;99.90
10296;DHT22;5193;51.032;6.356;2023-12-07T07:29:00;-1.70;99.90
10296;DHT22;5193;51.032;6.356;2023-12-07T07:31:27;-1.70;99.90
10296;DHT22;5193;51.032;6.356;2023-12-07T07:33:56;-1.80;99.90
10296;DHT22;5193;51.032;6.356;2023-12-07T07:36:21;-1.80;99.90
10296;DHT22;5193;51.032;6.356;2023-12-07T07:38:47;-1.80;99.90
10296;DHT22;5193;51.032;6.356;2023-12-07T07:41:16;-1.80;99.90
10296;DHT22;5193;51.032;6.356;2023-12-07T07:43:42;-1.80;99.90
10296;DHT22;5193;51.032;6.356;2023-12-07T07:46:08;-1.70;99.90
10296;DHT22;5193;51.032;6.356;2023-12-07T07:48:34;-1.80;99.90
10296;DHT22;5193;51.032;6.356;2023-12-07T07:51:01;-1.80;99.90
10296;DHT22;5193;51.032;6.356;2023-12-07T07:53:34;-1.80;99.90
10296;DHT22;5193;51.032;6.356;2023-12-07T07:55:59;-1.80;99.90
10296;DHT22;5193;51.032;6.356;2023-12-07T07:58:27;-1.70;99.90
10296;DHT22;5193;51.032;6.356;2023-12-07T08:00:52;-1.70;99.90
10296;DHT22;5193;51.032;6.356;2023-12-07T08:03:21;-1.70;99.90
10296;DHT22;5193;51.032;6.356;2023-12-07T08:05:47;-1.70;99.90
10296;DHT22;5193;51.032;6.356;2023-12-07T08:08:15;-1.60;99.90
10296;DHT22;5193;51.032;6.356;2023-12-07T08:10:42;-1.60;99.90
10296;DHT22;5193;51.032;6.356;2023-12-07T08:13:08;-1.70;99.90
10296;DHT22;5193;51.032;6.356;2023-12-07T08:15:34;-1.70;99.90
10296;DHT22;5193;51.032;6.356;2023-12-07T08:18:00;-1.70;99.90
10296;DHT22;5193;51.032;6.356;2023-12-07T08:20:42;-1.70;99.90
10296;DHT22;5193;51.032;6.356;2023-12-07T08:23:07;-1.70;99.90
10296;DHT22;5193;51.032;6.356;2023-12-07T08:25:38;-1.70;99.90
10296;DHT22;5193;51.032;6.356;2023-12-07T08:28:04;-1.60;99.90
10296;DHT22;5193;51.032;6.356;2023-12-07T08:30:30;-1.60;99.90
10296;DHT22;5193;51.032;6.356;2023-12-07T08:32:57;-1.60;99.90
10296;DHT22;5193;51.032;6.356;2023-12-07T08:35:25;-1.60;99.90
10296;DHT22;5193;51.032;6.356;2023-12-07T08:37:54;-1.50;99.90
10296;DHT22;5193;51.032;6.356;2023-12-07T08:40:23;-1.50;99.90
10296;DHT22;5193;51.032;6.356;2023-12-07T08:42:48;-1.40;99.90
10296;DHT22;5193;51.032;6.356;2023-12-07T08:45:14;-1.40;99.90
10296;DHT22;5193;51.032;6.356;2023-12-07T08:47:41;-1.30;99.90
10296;DHT22;5193;51.032;6.356;2023-12-07T08:50:08;-1.30;99.90
10296;DHT22;5193;51.032;6.356;2023-12-07T08:52:35;-1.30;99.90
10296;DHT22;5193;51.032;6.356;2023-12-07T08:55:00;-1.20;99.90
10296;DHT22;5193;51.032;6.356;2023-12-07T08:57:26;-1.20;99.90
10296;DHT22;5193;51.032;6.356;2023-12-07T08:59:55;-1.20;99.90
10296;DHT22;5193;51.032;6.356;2023-12-07T09:02:40;-1.20;99.90
10296;DHT22;5193;51.032;6.356;2023-12-07T09:05:06;-1.20;99.90
10296;DHT22;5193;51.032;6.356;2023-12-07T09:07:35;-1.20;99.90
10296;DHT22;5193;51.032;6.356;2023-12-07T09:10:00;-1.20;99.90
10296;DHT22;5193;51.032;6.356;2023-12-07T09:12:26;-1.10;99.90
10296;DHT22;5193;51.032;6.356;2023-12-07T09:14:56;-1.10;99.90
10296;DHT22;5193;51.032;6.356;2023-12-07T09:17:24;-1.00;99.90
10296;DHT22;5193;51.032;6.356;2023-12-07T09:19:49;-0.90;99.90
10296;DHT22;5193;51.032;6.356;2023-12-07T09:22:15;-0.90;99.90
10296;DHT22;5193;51.032;6.356;2023-12-07T09:24:42;-0.80;99.90
10296;DHT22;5193;51.032;6.356;2023-12-07T09:27:08;-0.70;99.90
10296;DHT22;5193;51.032;6.356;2023-12-07T09:29:39;-0.60;99.90
10296;DHT22;5193;51.032;6.356;2023-12-07T09:32:07;-0.50;99.90
10296;DHT22;5193;51.032;6.356;2023-12-07T09:34:36;-0.40;99.90
10296;DHT22;5193;51.032;6.356;2023-12-07T09:37:10;-0.30;99.90
10296;DHT22;5193;51.032;6.356;2023-12-07T09:39:36;-0.20;99.90
10296;DHT22;5193;51.032;6.356;2023-12-07T09:42:03;-0.10;99.90
10296;DHT22;5193;51.032;6.356;2023-12-07T09:44:34;0.00;99.90
10296;DHT22;5193;51.032;6.356;2023-12-07T09:47:00;0.00;99.90
10296;DHT22;5193;51.032;6.356;2023-12-07T09:49:26;0.10;99.90
10296;DHT22;5193;51.032;6.356;2023-12-07T09:51:52;0.20;99.90
10296;DHT22;5193;51.032;6.356;2023-12-07T09:54:42;0.20;99.90
10296;DHT22;5193;51.032;6.356;2023-12-07T09:57:09;0.30;99.90
10296;DHT22;5193;51.032;6.356;2023-12-07T09:59:39;0.40;99.90
10296;DHT22;5193;51.032;6.356;2023-12-07T10:02:08;0.50;99.90
10296;DHT22;5193;51.032;6.356;2023-12-07T10:04:33;0.50;99.90
10296;DHT22;5193;51.032;6.356;2023-12-07T10:06:59;0.60;99.90
10296;DHT22;5193;51.032;6.356;2023-12-07T10:09:27;0.70;99.90
10296;DHT22;5193;51.032;6.356;2023-12-07T10:12:04;0.70;99.90
10296;DHT22;5193;51.032;6.356;2023-12-07T10:14:32;0.80;99.90
10296;DHT22;5193;51.032;6.356;2023-12-07T10:16:59;0.90;99.90
10296;DHT22;5193;51.032;6.356;2023-12-07T10:19:34;0.90;99.90
10296;DHT22;5193;51.032;6.356;2023-12-07T10:21:59;1.00;99.90
10296;DHT22;5193;51.032;6.356;2023-12-07T10:24:26;1.00;99.90
10296;DHT22;5193;51.032;6.356;2023-12-07T10:26:53;1.10;99.90
10296;DHT22;5193;51.032;6.356;2023-12-07T10:29:22;1.10;99.90
10296;DHT22;5193;51.032;6.356;2023-12-07T10:32:01;1.20;99.90
10296;DHT22;5193;51.032;6.356;2023-12-07T10:34:31;1.20;99.90
10296;DHT22;5193;51.032;6.356;2023-12-07T10:36:58;1.30;99.90
10296;DHT22;5193;51.032;6.356;2023-12-07T10:39:27;1.30;99.90
10296;DHT22;5193;51.032;6.356;2023-12-07T10:42:01;1.40;99.90
10296;DHT22;5193;51.032;6.356;2023-12-07T10:44:31;1.40;99.90
10296;DHT22;5193;51.032;6.356;2023-12-07T10:46:58;1.50;99.90
10296;DHT22;5193;51.032;6.356;2023-12-07T10:49:26;1.50;99.90
10296;DHT22;5193;51.032;6.356;2023-12-07T10:52:01;1.50;99.90
10296;DHT22;5193;51.032;6.356;2023-12-07T10:57:47;1.60;99.90
10296;DHT22;5193;51.032;6.356;2023-12-07T11:00:13;1.70;99.90
10296;DHT22;5193;51.032;6.356;2023-12-07T11:02:40;1.70;99.90
10296;DHT22;5193;51.032;6.356;2023-12-07T11:05:10;1.80;99.90
10296;DHT22;5193;51.032;6.356;2023-12-07T11:08:16;1.80;99.90
10296;DHT22;5193;51.032;6.356;2023-12-07T11:11:02;1.90;99.90
10296;DHT22;5193;51.032;6.356;2023-12-07T11:13:37;1.90;99.90
10296;DHT22;5193;51.032;6.356;2023-12-07T11:16:05;2.00;99.90
10296;DHT22;5193;51.032;6.356;2023-12-07T11:18:31;2.00;99.90
10296;DHT22;5193;51.032;6.356;2023-12-07T11:20:59;2.10;99.90
10296;DHT22;5193;51.032;6.356;2023-12-07T11:23:27;2.20;99.90
10296;DHT22;5193;51.032;6.356;2023-12-07T11:26:03;2.30;99.90
10296;DHT22;5193;51.032;6.356;2023-12-07T11:28:39;2.40;99.90
10296;DHT22;5193;51.032;6.356;2023-12-07T11:31:08;2.40;99.90
10296;DHT22;5193;51.032;6.356;2023-12-07T11:33:38;2.40;99.90
10296;DHT22;5193;51.032;6.356;2023-12-07T11:36:07;2.50;99.90
10296;DHT22;5193;51.032;6.356;2023-12-07T11:38:36;2.60;99.90
10296;DHT22;5193;51.032;6.356;2023-12-07T11:41:03;2.70;99.90
10296;DHT22;5193;51.032;6.356;2023-12-07T11:43:45;2.70;99.90
10296;DHT22;5193;51.032;6.356;2023-12-07T11:46:12;2.80;99.90
10296;DHT22;5193;51.032;6.356;2023-12-07T11:48:39;2.90;99.90
10296;DHT22;5193;51.032;6.356;2023-12-07T11:51:10;2.90;99.90
10296;DHT22;5193;51.032;6.356;2023-12-07T11:53:38;3.00;99.90
10296;DHT22;5193;51.032;6.356;2023-12-07T11:56:08;3.10;99.90
10296;DHT22;5193;51.032;6.356;2023-12-07T11:58:35;3.10;99.90
10296;DHT22;5193;51.032;6.356;2023-12-07T12:01:02;3.10;99.90
10296;DHT22;5193;51.032;6.356;2023-12-07T12:03:29;3.20;99.90
10296;DHT22;5193;51.032;6.356;2023-12-07T12:05:58;3.20;99.90
10296;DHT22;5193;51.032;6.356;2023-12-07T12:08:24;3.30;99.90
10296;DHT22;5193;51.032;6.356;2023-12-07T12:10:51;3.30;99.90
10296;DHT22;5193;51.032;6.356;2023-12-07T12:13:19;3.30;99.90
10296;DHT22;5193;51.032;6.356;2023-12-07T12:15:48;3.40;99.90
10296;DHT22;5193;51.032;6.356;2023-12-07T12:18:21;3.50;99.90
10296;DHT22;5193;51.032;6.356;2023-12-07T12:20:46;3.50;99.90
10296;DHT22;5193;51.032;6.356;2023-12-07T12:23:12;3.60;99.90
10296;DHT22;5193;51.032;6.356;2023-12-07T12:25:51;3.60;99.90
10296;DHT22;5193;51.032;6.356;2023-12-07T12:28:17;3.70;99.90
10296;DHT22;5193;51.032;6.356;2023-12-07T12:30:48;3.70;99.90
10296;DHT22;5193;51.032;6.356;2023-12-07T12:33:14;3.70;99.90
10296;DHT22;5193;51.032;6.356;2023-12-07T12:35:41;3.80;99.90
10296;DHT22;5193;51.032;6.356;2023-12-07T12:38:12;3.80;99.90
10296;DHT22;5193;51.032;6.356;2023-12-07T12:40:38;3.80;99.90
10296;DHT22;5193;51.032;6.356;2023-12-07T12:43:24;3.80;99.90
10296;DHT22;5193;51.032;6.356;2023-12-07T12:45:53;3.80;99.90
10296;DHT22;5193;51.032;6.356;2023-12-07T12:48:19;3.80;99.90
10296;DHT22;5193;51.032;6.356;2023-12-07T12:50:45;3.80;99.90
10296;DHT22;5193;51.032;6.356;2023-12-07T12:56:34;3.80;99.90
10296;DHT22;5193;51.032;6.356;2023-12-07T12:58:59;3.90;99.90
10296;DHT22;5193;51.032;6.356;2023-12-07T13:01:26;3.90;99.90
10296;DHT22;5193;51.032;6.356;2023-12-07T13:04:04;3.90;99.90
10296;DHT22;5193;51.032;6.356;2023-12-07T13:06:30;3.90;99.90
10296;DHT22;5193;51.032;6.356;2023-12-07T13:08:56;3.90;99.90
10296;DHT22;5193;51.032;6.356;2023-12-07T13:11:22;3.90;99.90
10296;DHT22;5193;51.032;6.356;2023-12-07T13:13:51;3.90;99.90
10296;DHT22;5193;51.032;6.356;2023-12-07T13:16:18;4.00;99.90
10296;DHT22;5193;51.032;6.356;2023-12-07T13:18:54;4.00;99.90
10296;DHT22;5193;51.032;6.356;2023-12-07T13:21:23;4.00;99.90
10296;DHT22;5193;51.032;6.356;2023-12-07T13:27:04;4.00;99.90
10296;DHT22;5193;51.032;6.356;2023-12-07T13:29:31;4.10;99.90
10296;DHT22;5193;51.032;6.356;2023-12-07T13:32:00;4.00;99.90
10296;DHT22;5193;51.032;6.356;2023-12-07T13:34:26;4.00;99.90
10296;DHT22;5193;51.032;6.356;2023-12-07T13:36:57;4.10;99.90
10296;DHT22;5193;51.032;6.356;2023-12-07T13:39:30;4.00;99.90
10296;DHT22;5193;51.032;6.356;2023-12-07T13:41:56;4.00;99.90
10296;DHT22;5193;51.032;6.356;2023-12-07T13:44:22;4.00;99.90
10296;DHT22;5193;51.032;6.356;2023-12-07T13:46:49;3.90;99.90
10296;DHT22;5193;51.032;6.356;2023-12-07T13:49:15;3.80;99.90
10296;DHT22;5193;51.032;6.356;2023-12-07T13:51:41;3.80;99.90
10296;DHT22;5193;51.032;6.356;2023-12-07T13:54:18;3.80;99.90
10296;DHT22;5193;51.032;6.356;2023-12-07T13:56:45;3.80;99.90
10296;DHT22;5193;51.032;6.356;2023-12-07T13:59:11;3.70;99.90
10296;DHT22;5193;51.032;6.356;2023-12-07T14:01:38;3.70;99.90
10296;DHT22;5193;51.032;6.356;2023-12-07T14:04:11;3.70;99.90
10296;DHT22;5193;51.032;6.356;2023-12-07T14:06:39;3.70;99.90
10296;DHT22;5193;51.032;6.356;2023-12-07T14:09:06;3.60;99.90
10296;DHT22;5193;51.032;6.356;2023-12-07T14:11:32;3.60;99.90
10296;DHT22;5193;51.032;6.356;2023-12-07T14:13:59;3.50;99.90
10296;DHT22;5193;51.032;6.356;2023-12-07T14:16:24;3.50;99.90
10296;DHT22;5193;51.032;6.356;2023-12-07T14:18:51;3.40;99.90
10296;DHT22;5193;51.032;6.356;2023-12-07T14:21:20;3.40;99.90
10296;DHT22;5193;51.032;6.356;2023-12-07T14:23:46;3.40;99.90
10296;DHT22;5193;51.032;6.356;2023-12-07T14:26:15;3.30;99.90
10296;DHT22;5193;51.032;6.356;2023-12-07T14:28:40;3.20;99.90
10296;DHT22;5193;51.032;6.356;2023-12-07T14:31:12;3.20;99.90
10296;DHT22;5193;51.032;6.356;2023-12-07T14:33:42;3.20;99.90
10296;DHT22;5193;51.032;6.356;2023-12-07T14:36:12;3.20;99.90
10296;DHT22;5193;51.032;6.356;2023-12-07T14:38:38;3.10;99.90
10296;DHT22;5193;51.032;6.356;2023-12-07T14:41:06;3.10;99.90
10296;DHT22;5193;51.032;6.356;2023-12-07T14:43:33;3.10;99.90
10296;DHT22;5193;51.032;6.356;2023-12-07T14:45:59;3.10;99.90
10296;DHT22;5193;51.032;6.356;2023-12-07T14:48:25;3.10;99.90
10296;DHT22;5193;51.032;6.356;2023-12-07T14:50:51;3.10;99.90
10296;DHT22;5193;51.032;6.356;2023-12-07T14:53:17;3.00;99.90
10296;DHT22;5193;51.032;6.356;2023-12-07T14:55:48;3.00;99.90
10296;DHT22;5193;51.032;6.356;2023-12-07T15:01:38;3.00;99.90
10296;DHT22;5193;51.032;6.356;2023-12-07T15:04:04;2.90;99.90
10296;DHT22;5193;51.032;6.356;2023-12-07T15:06:31;2.90;99.90
10296;DHT22;5193;51.032;6.356;2023-12-07T15:09:08;2.80;99.90
10296;DHT22;5193;51.032;6.356;2023-12-07T15:11:34;2.80;99.90
10296;DHT22;5193;51.032;6.356;2023-12-07T15:14:00;2.70;99.90
10296;DHT22;5193;51.032;6.356;2023-12-07T15:16:26;2.70;99.90
10296;DHT22;5193;51.032;6.356;2023-12-07T15:18:52;2.70;99.90
10296;DHT22;5193;51.032;6.356;2023-12-07T15:21:18;2.70;99.90
10296;DHT22;5193;51.032;6.356;2023-12-07T15:23:45;2.60;99.90
10296;DHT22;5193;51.032;6.356;2023-12-07T15:26:11;2.60;99.90
10296;DHT22;5193;51.032;6.356;2023-12-07T15:28:38;2.50;99.90
10296;DHT22;5193;51.032;6.356;2023-12-07T15:31:06;2.50;99.90
10296;DHT22;5193;51.032;6.356;2023-12-07T15:33:34;2.50;99.90
10296;DHT22;5193;51.032;6.356;2023-12-07T15:36:02;2.50;99.90
10296;DHT22;5193;51.032;6.356;2023-12-07T15:38:28;2.40;99.90
10296;DHT22;5193;51.032;6.356;2023-12-07T15:40:54;2.40;99.90
10296;DHT22;5193;51.032;6.356;2023-12-07T15:43:25;2.40;99.90
10296;DHT22;5193;51.032;6.356;2023-12-07T15:45:51;2.40;99.90
10296;DHT22;5193;51.032;6.356;2023-12-07T15:48:19;2.40;99.90
10296;DHT22;5193;51.032;6.356;2023-12-07T15:50:48;2.30;99.90
10296;DHT22;5193;51.032;6.356;2023-12-07T15:53:15;2.30;99.90
10296;DHT22;5193;51.032;6.356;2023-12-07T15:55:45;2.30;99.90
10296;DHT22;5193;51.032;6.356;2023-12-07T15:58:12;2.30;99.90
10296;DHT22;5193;51.032;6.356;2023-12-07T16:00:39;2.30;99.90
10296;DHT22;5193;51.032;6.356;2023-12-07T16:03:14;2.30;99.90
10296;DHT22;5193;51.032;6.356;2023-12-07T16:05:40;2.20;99.90
10296;DHT22;5193;51.032;6.356;2023-12-07T16:08:05;2.20;99.90
10296;DHT22;5193;51.032;6.356;2023-12-07T16:10:31;2.20;99.90
10296;DHT22;5193;51.032;6.356;2023-12-07T16:12:57;2.20;99.90
10296;DHT22;5193;51.032;6.356;2023-12-07T16:15:22;2.20;99.90
10296;DHT22;5193;51.032;6.356;2023-12-07T16:17:54;2.20;99.90
10296;DHT22;5193;51.032;6.356;2023-12-07T16:20:23;2.20;99.90
10296;DHT22;5193;51.032;6.356;2023-12-07T16:22:48;2.20;99.90
10296;DHT22;5193;51.032;6.356;2023-12-07T16:25:14;2.20;99.90